Airfield :
LOGIN :

Register | Disclaimer

   EN    FR    IT 

 










Legend :    VFR   Marginal VFR   IFR   Intensive IFR   Very Intensive IFR
Visi :
Ceiling :
>= 8 km
>= 3000ft
5 to 8 km
1000 to 3000 ft
1500m to 5 km
500 to 1000 ft
800 to 1500m
200 to 500 ft
< 800m
< 200 ft
Symbols :   Thunderstorms  Fog  Heavy snow  Heavy precipitations  Wind > 20 kt
SIGMETs :     Misc.  Thunderstorms  Icing  Turbulence  Mountain Waves  Volcanic Ashes






- Airport Elevation : 44 ft
- IATA code : POR


EFPO - Pori

CURRENT METAR :
  • 192050Z AUTO 24002KT 9999 BKN035 16/15 Q1012

EXPIRED METARs :
  • 192020Z AUTO 29003KT 240V340 9999 OVC034 17/15 Q1012
  • 191950Z AUTO 28006KT 9999 BKN034 17/15 Q1012
  • 191920Z AUTO 28006KT 9999 BKN034 17/15 Q1012
  • 191850Z AUTO 30007KT 9999 BKN035 17/15 Q1012
  • 191820Z AUTO 29007KT 260V330 9999 BKN027 17/15 Q1012
  • 191750Z AUTO 29009KT 9999 OVC027 17/15 Q1012
  • 191720Z AUTO 28008KT 250V310 9999 BKN025 18/15 Q1012
  • 191650Z AUTO 29010KT 9999 FEW021 //////CB 18/15 Q1012
  • 191620Z AUTO 28009KT 9999 BKN021 19/15 Q1012

TAF TAF EFPO
Valid from the 19 at 21:00 until the 20 at 00:00 UTC


192032Z 1921/1924 29003KT 9999 OVC034



MET'MAP, your aeronautical weather chart ! - Copyright ORBIFLY December 2007 - Disclaimer

ORBIFLY MET'MAP TEAM :

Programming & Development : Alexandra Zaïnal
Original concept : Baudouin d'Aumeries
Technical & hardware support : Manuel Goepfert
Assistance : Marc-Olivier Méhu




SOURCES & CREDITS :

   NOAA